sensor_id;sensor_type;location;lat;lon;timestamp;pressure;altitude;pressure_sealevel;temperature;humidity
49194;BME280;35029;50.804;12.866;2023-03-25T00:02:24;96710.91;;;8.69;99.61
49194;BME280;35029;50.804;12.866;2023-03-25T00:04:52;96679.47;;;8.48;99.30
49194;BME280;35029;50.804;12.866;2023-03-25T00:07:19;96713.53;;;8.69;99.44
49194;BME280;35029;50.804;12.866;2023-03-25T00:09:45;96684.31;;;8.57;98.90
49194;BME280;35029;50.804;12.866;2023-03-25T00:12:13;96694.84;;;8.64;99.76
49194;BME280;35029;50.804;12.866;2023-03-25T00:14:39;96705.22;;;8.66;99.61
49194;BME280;35029;50.804;12.866;2023-03-25T00:17:06;96691.41;;;8.63;100.00
49194;BME280;35029;50.804;12.866;2023-03-25T00:19:33;96682.50;;;8.51;100.00
49194;BME280;35029;50.804;12.866;2023-03-25T00:22:00;96700.78;;;8.59;100.00
49194;BME280;35029;50.804;12.866;2023-03-25T00:24:26;96695.91;;;8.63;100.00
49194;BME280;35029;50.804;12.866;2023-03-25T00:26:52;96700.97;;;8.65;100.00
49194;BME280;35029;50.804;12.866;2023-03-25T00:29:18;96685.94;;;8.58;100.00
49194;BME280;35029;50.804;12.866;2023-03-25T00:31:44;96679.47;;;8.48;100.00
49194;BME280;35029;50.804;12.866;2023-03-25T00:34:10;96687.59;;;8.53;100.00
49194;BME280;35029;50.804;12.866;2023-03-25T00:36:39;96668.91;;;8.34;100.00
49194;BME280;35029;50.804;12.866;2023-03-25T00:39:06;96690.44;;;8.51;100.00
49194;BME280;35029;50.804;12.866;2023-03-25T00:41:33;96664.44;;;8.41;100.00
49194;BME280;35029;50.804;12.866;2023-03-25T00:44:02;96658.16;;;8.36;100.00
49194;BME280;35029;50.804;12.866;2023-03-25T00:46:30;96680.47;;;8.53;100.00
49194;BME280;35029;50.804;12.866;2023-03-25T00:48:57;96681.66;;;8.57;100.00
49194;BME280;35029;50.804;12.866;2023-03-25T00:51:24;96679.84;;;8.58;100.00
49194;BME280;35029;50.804;12.866;2023-03-25T00:53:53;96668.88;;;8.54;100.00
49194;BME280;35029;50.804;12.866;2023-03-25T00:56:22;96672.16;;;8.56;100.00
49194;BME280;35029;50.804;12.866;2023-03-25T00:58:49;96670.31;;;8.57;100.00
49194;BME280;35029;50.804;12.866;2023-03-25T01:01:20;96658.94;;;8.56;100.00
49194;BME280;35029;50.804;12.866;2023-03-25T01:03:52;96662.34;;;8.63;99.60
49194;BME280;35029;50.804;12.866;2023-03-25T01:06:31;96656.66;;;8.67;98.91
49194;BME280;35029;50.804;12.866;2023-03-25T01:08:57;96653.56;;;8.70;98.76
49194;BME280;35029;50.804;12.866;2023-03-25T01:11:29;96635.69;;;8.72;98.47
49194;BME280;35029;50.804;12.866;2023-03-25T01:13:56;96639.75;;;8.74;98.32
49194;BME280;35029;50.804;12.866;2023-03-25T01:16:24;96642.94;;;8.83;98.66
49194;BME280;35029;50.804;12.866;2023-03-25T01:18:50;96603.47;;;8.56;99.06
49194;BME280;35029;50.804;12.866;2023-03-25T01:21:17;96614.81;;;8.63;99.84
49194;BME280;35029;50.804;12.866;2023-03-25T01:23:43;96637.28;;;8.79;99.72
49194;BME280;35029;50.804;12.866;2023-03-25T01:26:09;96637.69;;;8.76;100.00
49194;BME280;35029;50.804;12.866;2023-03-25T01:28:35;96626.75;;;8.73;100.00
49194;BME280;35029;50.804;12.866;2023-03-25T01:31:04;96631.78;;;8.81;100.00
49194;BME280;35029;50.804;12.866;2023-03-25T01:33:30;96637.06;;;8.81;100.00
49194;BME280;35029;50.804;12.866;2023-03-25T01:35:57;96617.63;;;8.69;100.00
49194;BME280;35029;50.804;12.866;2023-03-25T01:38:23;96635.25;;;8.82;100.00
49194;BME280;35029;50.804;12.866;2023-03-25T01:40:50;96630.78;;;8.82;100.00
49194;BME280;35029;50.804;12.866;2023-03-25T01:43:16;96640.91;;;8.85;100.00
49194;BME280;35029;50.804;12.866;2023-03-25T01:45:42;96625.94;;;8.72;100.00
49194;BME280;35029;50.804;12.866;2023-03-25T01:48:14;96631.16;;;8.86;100.00
49194;BME280;35029;50.804;12.866;2023-03-25T01:50:47;96633.13;;;8.97;100.00
49194;BME280;35029;50.804;12.866;2023-03-25T01:53:14;96614.59;;;8.97;100.00
49194;BME280;35029;50.804;12.866;2023-03-25T01:55:42;96585.66;;;8.84;100.00
49194;BME280;35029;50.804;12.866;2023-03-25T01:58:12;96597.38;;;8.94;100.00
49194;BME280;35029;50.804;12.866;2023-03-25T02:00:41;96599.41;;;8.92;100.00
49194;BME280;35029;50.804;12.866;2023-03-25T02:03:08;96604.09;;;8.90;100.00
49194;BME280;35029;50.804;12.866;2023-03-25T02:06:03;96588.88;;;8.86;99.68
49194;BME280;35029;50.804;12.866;2023-03-25T02:08:36;96563.16;;;8.68;99.55
49194;BME280;35029;50.804;12.866;2023-03-25T02:11:04;96591.97;;;8.76;98.07
49194;BME280;35029;50.804;12.866;2023-03-25T02:13:32;96569.91;;;8.63;97.21
49194;BME280;35029;50.804;12.866;2023-03-25T02:18:49;96581.63;;;8.74;96.67
49194;BME280;35029;50.804;12.866;2023-03-25T02:27:11;96575.41;;;8.62;94.28
49194;BME280;35029;50.804;12.866;2023-03-25T02:44:13;96559.59;;;8.42;94.40
49194;BME280;35029;50.804;12.866;2023-03-25T02:46:42;96579.94;;;8.48;95.00
49194;BME280;35029;50.804;12.866;2023-03-25T02:49:16;96581.53;;;8.49;94.60
49194;BME280;35029;50.804;12.866;2023-03-25T02:51:48;96558.84;;;8.35;93.88
49194;BME280;35029;50.804;12.866;2023-03-25T02:54:18;96572.59;;;8.50;94.68
49194;BME280;35029;50.804;12.866;2023-03-25T02:56:46;96576.25;;;8.49;93.93
49194;BME280;35029;50.804;12.866;2023-03-25T02:59:14;96575.88;;;8.45;94.99
49194;BME280;35029;50.804;12.866;2023-03-25T03:01:41;96573.81;;;8.41;94.79
49194;BME280;35029;50.804;12.866;2023-03-25T03:04:07;96575.44;;;8.42;95.40
49194;BME280;35029;50.804;12.866;2023-03-25T03:06:39;96565.50;;;8.44;95.15
49194;BME280;35029;50.804;12.866;2023-03-25T03:09:27;96568.75;;;8.39;95.35
49194;BME280;35029;50.804;12.866;2023-03-25T03:12:17;96569.78;;;8.45;95.75
49194;BME280;35029;50.804;12.866;2023-03-25T03:18:22;96573.44;;;8.44;95.89
49194;BME280;35029;50.804;12.866;2023-03-25T03:23:58;96570.16;;;8.42;95.75
49194;BME280;35029;50.804;12.866;2023-03-25T03:26:37;96574.25;;;8.38;95.57
49194;BME280;35029;50.804;12.866;2023-03-25T03:31:58;96573.47;;;8.37;94.87
49194;BME280;35029;50.804;12.866;2023-03-25T03:34:26;96557.66;;;8.24;95.47
49194;BME280;35029;50.804;12.866;2023-03-25T03:36:56;96557.88;;;8.22;96.00
49194;BME280;35029;50.804;12.866;2023-03-25T03:39:26;96574.91;;;8.33;95.91
49194;BME280;35029;50.804;12.866;2023-03-25T03:41:58;96593.13;;;8.41;96.32
49194;BME280;35029;50.804;12.866;2023-03-25T03:44:30;96592.75;;;8.38;95.42
49194;BME280;35029;50.804;12.866;2023-03-25T03:47:08;96553.00;;;8.12;96.55
49194;BME280;35029;50.804;12.866;2023-03-25T03:49:42;96594.19;;;8.34;94.62
49194;BME280;35029;50.804;12.866;2023-03-25T03:52:31;96587.06;;;8.34;95.30
49194;BME280;35029;50.804;12.866;2023-03-25T03:55:02;96575.53;;;8.22;93.74
49194;BME280;35029;50.804;12.866;2023-03-25T03:57:38;96591.09;;;8.37;92.91
49194;BME280;35029;50.804;12.866;2023-03-25T04:05:11;96605.34;;;8.36;92.55
49194;BME280;35029;50.804;12.866;2023-03-25T04:07:44;96587.06;;;8.27;93.05
49194;BME280;35029;50.804;12.866;2023-03-25T04:11:11;96600.47;;;8.33;92.42
49194;BME280;35029;50.804;12.866;2023-03-25T04:13:12;96607.59;;;8.32;93.99
49194;BME280;35029;50.804;12.866;2023-03-25T04:15:40;96609.03;;;8.28;95.89
49194;BME280;35029;50.804;12.866;2023-03-25T04:18:06;96610.28;;;8.19;98.76
49194;BME280;35029;50.804;12.866;2023-03-25T04:20:33;96611.28;;;8.11;100.00
49194;BME280;35029;50.804;12.866;2023-03-25T04:23:02;96613.16;;;7.97;100.00
49194;BME280;35029;50.804;12.866;2023-03-25T04:25:29;96616.00;;;7.95;100.00
49194;BME280;35029;50.804;12.866;2023-03-25T04:27:57;96604.69;;;7.75;100.00
49194;BME280;35029;50.804;12.866;2023-03-25T04:30:27;96601.84;;;7.63;100.00
49194;BME280;35029;50.804;12.866;2023-03-25T04:32:53;96630.06;;;7.42;100.00
49194;BME280;35029;50.804;12.866;2023-03-25T04:35:19;96621.72;;;7.39;100.00
49194;BME280;35029;50.804;12.866;2023-03-25T04:37:45;96613.44;;;7.35;100.00
49194;BME280;35029;50.804;12.866;2023-03-25T04:40:14;96618.91;;;7.27;100.00
49194;BME280;35029;50.804;12.866;2023-03-25T04:42:47;96616.47;;;7.19;100.00
49194;BME280;35029;50.804;12.866;2023-03-25T04:45:13;96617.91;;;7.28;100.00
49194;BME280;35029;50.804;12.866;2023-03-25T04:47:45;96632.88;;;7.21;100.00
49194;BME280;35029;50.804;12.866;2023-03-25T04:50:23;96617.25;;;7.19;100.00
49194;BME280;35029;50.804;12.866;2023-03-25T04:52:49;96603.06;;;7.07;100.00
49194;BME280;35029;50.804;12.866;2023-03-25T04:55:16;96611.56;;;7.16;100.00
49194;BME280;35029;50.804;12.866;2023-03-25T04:57:46;96606.94;;;7.18;100.00
49194;BME280;35029;50.804;12.866;2023-03-25T05:00:13;96605.09;;;7.18;100.00
49194;BME280;35029;50.804;12.866;2023-03-25T05:02:47;96601.66;;;7.11;100.00
49194;BME280;35029;50.804;12.866;2023-03-25T05:05:16;96620.53;;;7.21;100.00
49194;BME280;35029;50.804;12.866;2023-03-25T05:07:45;96614.63;;;7.19;100.00
49194;BME280;35029;50.804;12.866;2023-03-25T05:10:12;96617.69;;;7.16;100.00
49194;BME280;35029;50.804;12.866;2023-03-25T05:12:38;96598.59;;;7.01;100.00
49194;BME280;35029;50.804;12.866;2023-03-25T05:15:04;96625.78;;;7.08;100.00
49194;BME280;35029;50.804;12.866;2023-03-25T05:17:30;96620.50;;;7.08;100.00
49194;BME280;35029;50.804;12.866;2023-03-25T05:19:56;96639.53;;;7.10;100.00
49194;BME280;35029;50.804;12.866;2023-03-25T05:22:22;96634.50;;;7.15;100.00
49194;BME280;35029;50.804;12.866;2023-03-25T05:24:47;96632.84;;;7.01;100.00
49194;BME280;35029;50.804;12.866;2023-03-25T05:27:14;96588.41;;;6.77;100.00
49194;BME280;35029;50.804;12.866;2023-03-25T05:29:45;96627.97;;;6.98;100.00
49194;BME280;35029;50.804;12.866;2023-03-25T05:32:11;96641.13;;;6.91;100.00
49194;BME280;35029;50.804;12.866;2023-03-25T05:34:44;96627.16;;;6.90;100.00
49194;BME280;35029;50.804;12.866;2023-03-25T05:37:13;96649.84;;;6.85;99.93
49194;BME280;35029;50.804;12.866;2023-03-25T05:39:39;96619.94;;;6.51;99.95
49194;BME280;35029;50.804;12.866;2023-03-25T05:42:04;96647.94;;;6.65;98.81
49194;BME280;35029;50.804;12.866;2023-03-25T05:44:30;96667.06;;;6.87;98.00
49194;BME280;35029;50.804;12.866;2023-03-25T05:46:55;96664.25;;;6.96;96.34
49194;BME280;35029;50.804;12.866;2023-03-25T05:49:21;96662.19;;;6.91;95.74
49194;BME280;35029;50.804;12.866;2023-03-25T05:51:47;96666.28;;;6.93;96.39
49194;BME280;35029;50.804;12.866;2023-03-25T05:54:14;96662.03;;;6.99;95.22
49194;BME280;35029;50.804;12.866;2023-03-25T05:56:40;96637.69;;;6.84;95.50
49194;BME280;35029;50.804;12.866;2023-03-25T05:59:07;96667.56;;;7.24;100.00
49194;BME280;35029;50.804;12.866;2023-03-25T06:01:34;96659.44;;;7.26;94.53
49194;BME280;35029;50.804;12.866;2023-03-25T06:04:03;96653.56;;;7.24;93.63
49194;BME280;35029;50.804;12.866;2023-03-25T06:06:31;96668.16;;;7.33;94.21
49194;BME280;35029;50.804;12.866;2023-03-25T06:08:58;96666.38;;;7.40;94.51
49194;BME280;35029;50.804;12.866;2023-03-25T06:11:23;96666.38;;;7.40;91.90
49194;BME280;35029;50.804;12.866;2023-03-25T06:13:49;96642.22;;;7.30;91.86
49194;BME280;35029;50.804;12.866;2023-03-25T06:16:18;96663.94;;;7.52;92.76
49194;BME280;35029;50.804;12.866;2023-03-25T06:18:48;96661.50;;;7.57;92.47
49194;BME280;35029;50.804;12.866;2023-03-25T06:21:18;96658.03;;;7.97;99.38
49194;BME280;35029;50.804;12.866;2023-03-25T06:23:45;96658.44;;;8.07;91.54
49194;BME280;35029;50.804;12.866;2023-03-25T06:26:13;96643.81;;;8.05;92.62
49194;BME280;35029;50.804;12.866;2023-03-25T06:28:38;96656.00;;;8.06;91.82
49194;BME280;35029;50.804;12.866;2023-03-25T06:31:04;96664.28;;;8.09;92.31
49194;BME280;35029;50.804;12.866;2023-03-25T06:33:33;96659.06;;;7.83;91.91
49194;BME280;35029;50.804;12.866;2023-03-25T06:35:58;96645.25;;;7.67;93.33
49194;BME280;35029;50.804;12.866;2023-03-25T06:38:24;96655.00;;;7.73;94.24
49194;BME280;35029;50.804;12.866;2023-03-25T06:41:07;96668.41;;;7.72;94.07
49194;BME280;35029;50.804;12.866;2023-03-25T06:43:36;96660.50;;;7.58;94.02
49194;BME280;35029;50.804;12.866;2023-03-25T06:46:37;96659.88;;;7.56;94.10
49194;BME280;35029;50.804;12.866;2023-03-25T06:49:13;96641.81;;;7.53;94.77
49194;BME280;35029;50.804;12.866;2023-03-25T06:51:39;96662.31;;;7.51;93.37
49194;BME280;35029;50.804;12.866;2023-03-25T06:54:04;96659.28;;;7.54;95.76
49194;BME280;35029;50.804;12.866;2023-03-25T06:56:30;96656.81;;;7.66;95.29
49194;BME280;35029;50.804;12.866;2023-03-25T06:58:55;96673.47;;;7.73;95.15
49194;BME280;35029;50.804;12.866;2023-03-25T07:01:21;96661.28;;;7.86;96.59
49194;BME280;35029;50.804;12.866;2023-03-25T07:03:46;96661.88;;;7.94;94.77
49194;BME280;35029;50.804;12.866;2023-03-25T07:06:17;96665.34;;;7.95;93.57
49194;BME280;35029;50.804;12.866;2023-03-25T07:08:43;96670.22;;;7.91;95.34
49194;BME280;35029;50.804;12.866;2023-03-25T07:11:09;96667.38;;;7.93;94.97
49194;BME280;35029;50.804;12.866;2023-03-25T07:13:35;96671.84;;;8.06;95.64
49194;BME280;35029;50.804;12.866;2023-03-25T07:16:01;96671.84;;;8.06;96.23
49194;BME280;35029;50.804;12.866;2023-03-25T07:18:27;96669.38;;;8.11;95.77
49194;BME280;35029;50.804;12.866;2023-03-25T07:20:53;96652.75;;;7.90;95.79
49194;BME280;35029;50.804;12.866;2023-03-25T07:23:18;96679.72;;;8.12;97.86
49194;BME280;35029;50.804;12.866;2023-03-25T07:25:44;96666.78;;;7.91;97.31
49194;BME280;35029;50.804;12.866;2023-03-25T07:28:10;96670.63;;;7.95;98.17
49194;BME280;35029;50.804;12.866;2023-03-25T07:30:41;96672.25;;;7.83;98.08
49194;BME280;35029;50.804;12.866;2023-03-25T07:33:07;96691.72;;;7.68;99.12
49194;BME280;35029;50.804;12.866;2023-03-25T07:35:32;96691.31;;;7.71;100.00
49194;BME280;35029;50.804;12.866;2023-03-25T07:37:58;96697.03;;;7.88;100.00
49194;BME280;35029;50.804;12.866;2023-03-25T07:40:24;96698.22;;;7.72;100.00
49194;BME280;35029;50.804;12.866;2023-03-25T07:42:49;96691.72;;;7.61;100.00
49194;BME280;35029;50.804;12.866;2023-03-25T07:45:35;96687.25;;;7.42;100.00
49194;BME280;35029;50.804;12.866;2023-03-25T07:48:01;96688.03;;;7.29;100.00
49194;BME280;35029;50.804;12.866;2023-03-25T07:50:27;96699.00;;;7.33;100.00
49194;BME280;35029;50.804;12.866;2023-03-25T07:52:54;96700.22;;;7.30;100.00
49194;BME280;35029;50.804;12.866;2023-03-25T07:55:20;96697.16;;;7.26;100.00
49194;BME280;35029;50.804;12.866;2023-03-25T07:57:46;96692.84;;;7.05;100.00
49194;BME280;35029;50.804;12.866;2023-03-25T08:00:12;96696.53;;;7.18;100.00
49194;BME280;35029;50.804;12.866;2023-03-25T08:02:38;96698.19;;;7.32;100.00
49194;BME280;35029;50.804;12.866;2023-03-25T08:05:05;96709.53;;;7.33;100.00
49194;BME280;35029;50.804;12.866;2023-03-25T08:07:31;96700.81;;;7.39;100.00
49194;BME280;35029;50.804;12.866;2023-03-25T08:09:57;96696.56;;;7.24;100.00
49194;BME280;35029;50.804;12.866;2023-03-25T08:12:23;96705.91;;;7.34;100.00
49194;BME280;35029;50.804;12.866;2023-03-25T08:14:48;96711.81;;;7.49;100.00
49194;BME280;35029;50.804;12.866;2023-03-25T08:17:14;96708.53;;;7.47;100.00
49194;BME280;35029;50.804;12.866;2023-03-25T08:19:40;96708.97;;;7.51;100.00
49194;BME280;35029;50.804;12.866;2023-03-25T08:22:05;96711.00;;;7.55;100.00
49194;BME280;35029;50.804;12.866;2023-03-25T08:24:31;96712.63;;;7.56;100.00
49194;BME280;35029;50.804;12.866;2023-03-25T08:26:58;96695.34;;;7.47;100.00
49194;BME280;35029;50.804;12.866;2023-03-25T08:29:27;96698.22;;;7.59;100.00
49194;BME280;35029;50.804;12.866;2023-03-25T08:31:54;96711.19;;;7.54;100.00
49194;BME280;35029;50.804;12.866;2023-03-25T08:34:21;96703.91;;;7.76;100.00
49194;BME280;35029;50.804;12.866;2023-03-25T08:36:47;96702.50;;;7.73;99.06
49194;BME280;35029;50.804;12.866;2023-03-25T08:39:13;96720.16;;;7.93;97.70
49194;BME280;35029;50.804;12.866;2023-03-25T08:41:43;96703.50;;;7.86;97.28
49194;BME280;35029;50.804;12.866;2023-03-25T08:44:09;96707.78;;;7.93;96.33
49194;BME280;35029;50.804;12.866;2023-03-25T08:46:36;96709.78;;;7.98;96.04
49194;BME280;35029;50.804;12.866;2023-03-25T08:49:03;96707.56;;;8.02;94.99
49194;BME280;35029;50.804;12.866;2023-03-25T08:51:29;96708.16;;;8.04;94.76
49194;BME280;35029;50.804;12.866;2023-03-25T08:54:05;96705.31;;;7.99;94.33
49194;BME280;35029;50.804;12.866;2023-03-25T08:56:31;96718.09;;;8.15;97.62
49194;BME280;35029;50.804;12.866;2023-03-25T08:58:56;96728.66;;;8.15;93.97
49194;BME280;35029;50.804;12.866;2023-03-25T09:01:22;96730.28;;;8.23;91.89
49194;BME280;35029;50.804;12.866;2023-03-25T09:03:48;96731.69;;;8.32;91.67
49194;BME280;35029;50.804;12.866;2023-03-25T09:06:14;96728.03;;;8.33;90.40
49194;BME280;35029;50.804;12.866;2023-03-25T09:08:40;96737.16;;;8.51;89.25
49194;BME280;35029;50.804;12.866;2023-03-25T09:11:06;96727.19;;;9.11;89.21
49194;BME280;35029;50.804;12.866;2023-03-25T09:13:32;96730.56;;;9.25;88.45
49194;BME280;35029;50.804;12.866;2023-03-25T09:15:58;96713.59;;;9.01;88.40
49194;BME280;35029;50.804;12.866;2023-03-25T09:18:23;96731.75;;;8.98;87.07
49194;BME280;35029;50.804;12.866;2023-03-25T09:20:49;96731.97;;;8.89;86.65
49194;BME280;35029;50.804;12.866;2023-03-25T09:23:16;96731.59;;;8.79;85.63
49194;BME280;35029;50.804;12.866;2023-03-25T09:25:42;96731.81;;;8.71;86.69
49194;BME280;35029;50.804;12.866;2023-03-25T09:28:08;96725.97;;;8.62;86.05
49194;BME280;35029;50.804;12.866;2023-03-25T09:30:34;96733.88;;;8.69;85.93
49194;BME280;35029;50.804;12.866;2023-03-25T09:33:00;96666.66;;;8.51;88.97
49194;BME280;35029;50.804;12.866;2023-03-25T09:35:26;96740.03;;;9.01;85.24
49194;BME280;35029;50.804;12.866;2023-03-25T09:37:51;96720.78;;;8.87;83.02
49194;BME280;35029;50.804;12.866;2023-03-25T09:40:18;96745.13;;;9.48;79.32
49194;BME280;35029;50.804;12.866;2023-03-25T09:45:20;96748.72;;;9.22;78.35
49194;BME280;35029;50.804;12.866;2023-03-25T09:53:53;96733.75;;;8.95;81.64
49194;BME280;35029;50.804;12.866;2023-03-25T09:56:23;96747.16;;;9.07;81.25
49194;BME280;35029;50.804;12.866;2023-03-25T09:58:55;96735.78;;;9.07;80.36
49194;BME280;35029;50.804;12.866;2023-03-25T10:04:53;96742.34;;;8.91;80.43
49194;BME280;35029;50.804;12.866;2023-03-25T10:23:21;96738.28;;;9.27;75.08
49194;BME280;35029;50.804;12.866;2023-03-25T10:26:03;96730.75;;;9.30;74.05
49194;BME280;35029;50.804;12.866;2023-03-25T10:28:33;96688.94;;;9.14;75.69
49194;BME280;35029;50.804;12.866;2023-03-25T10:31:02;96730.28;;;9.40;75.70
49194;BME280;35029;50.804;12.866;2023-03-25T10:33:40;96692.09;;;9.29;75.07
49194;BME280;35029;50.804;12.866;2023-03-25T10:36:13;96730.84;;;9.56;75.22
49194;BME280;35029;50.804;12.866;2023-03-25T10:38:42;96737.47;;;10.15;74.08
49194;BME280;35029;50.804;12.866;2023-03-25T10:41:36;96719.75;;;10.41;72.40
49194;BME280;35029;50.804;12.866;2023-03-25T10:44:08;96696.34;;;9.94;72.27
49194;BME280;35029;50.804;12.866;2023-03-25T10:49:02;96706.56;;;10.35;71.51
49194;BME280;35029;50.804;12.866;2023-03-25T10:51:34;96708.16;;;10.17;71.92
49194;BME280;35029;50.804;12.866;2023-03-25T10:54:01;96719.53;;;9.92;71.36
49194;BME280;35029;50.804;12.866;2023-03-25T10:56:29;96719.25;;;9.82;69.98
49194;BME280;35029;50.804;12.866;2023-03-25T10:58:59;96721.75;;;9.70;70.31
49194;BME280;35029;50.804;12.866;2023-03-25T11:01:40;96727.44;;;9.99;70.45
49194;BME280;35029;50.804;12.866;2023-03-25T11:04:12;96724.00;;;9.98;67.57
49194;BME280;35029;50.804;12.866;2023-03-25T11:06:40;96726.09;;;10.15;69.58
49194;BME280;35029;50.804;12.866;2023-03-25T11:09:25;96719.59;;;10.11;68.65
49194;BME280;35029;50.804;12.866;2023-03-25T11:11:52;96717.88;;;10.23;69.25
49194;BME280;35029;50.804;12.866;2023-03-25T11:14:26;96714.84;;;10.45;69.74
49194;BME280;35029;50.804;12.866;2023-03-25T11:16:58;96715.81;;;10.69;69.46
49194;BME280;35029;50.804;12.866;2023-03-25T11:19:32;96703.16;;;10.53;66.84
49194;BME280;35029;50.804;12.866;2023-03-25T11:24:58;96692.19;;;10.24;67.31
49194;BME280;35029;50.804;12.866;2023-03-25T11:27:26;96694.16;;;10.35;68.73
49194;BME280;35029;50.804;12.866;2023-03-25T11:30:00;96682.09;;;10.39;69.25
49194;BME280;35029;50.804;12.866;2023-03-25T11:32:33;96687.75;;;10.43;67.01
49194;BME280;35029;50.804;12.866;2023-03-25T11:37:47;96679.13;;;11.57;66.31
49194;BME280;35029;50.804;12.866;2023-03-25T11:40:18;96679.81;;;11.10;63.45
49194;BME280;35029;50.804;12.866;2023-03-25T11:42:45;96669.78;;;11.55;64.07
49194;BME280;35029;50.804;12.866;2023-03-25T11:45:25;96653.72;;;11.38;63.56
49194;BME280;35029;50.804;12.866;2023-03-25T11:47:56;96655.81;;;11.47;63.02
49194;BME280;35029;50.804;12.866;2023-03-25T11:50:25;96661.03;;;11.12;62.03
49194;BME280;35029;50.804;12.866;2023-03-25T11:52:57;96660.56;;;11.15;62.19
49194;BME280;35029;50.804;12.866;2023-03-25T11:57:53;96667.03;;;11.19;65.24
49194;BME280;35029;50.804;12.866;2023-03-25T12:03:19;96666.31;;;12.08;60.51
49194;BME280;35029;50.804;12.866;2023-03-25T12:06:00;96663.44;;;11.44;63.35
49194;BME280;35029;50.804;12.866;2023-03-25T12:08:30;96647.81;;;11.24;64.88
49194;BME280;35029;50.804;12.866;2023-03-25T12:11:10;96651.66;;;11.09;64.75
49194;BME280;35029;50.804;12.866;2023-03-25T12:14:06;96639.38;;;10.66;64.26
49194;BME280;35029;50.804;12.866;2023-03-25T12:31:29;96639.25;;;10.61;67.35
49194;BME280;35029;50.804;12.866;2023-03-25T12:42:29;96613.47;;;10.49;75.18
49194;BME280;35029;50.804;12.866;2023-03-25T12:47:54;96582.22;;;10.40;72.70
49194;BME280;35029;50.804;12.866;2023-03-25T13:01:52;96585.59;;;11.08;65.46
49194;BME280;35029;50.804;12.866;2023-03-25T13:07:12;96590.66;;;11.09;63.72
49194;BME280;35029;50.804;12.866;2023-03-25T13:09:58;96581.59;;;11.17;64.29
49194;BME280;35029;50.804;12.866;2023-03-25T13:15:17;96575.41;;;11.82;60.87
49194;BME280;35029;50.804;12.866;2023-03-25T13:18:12;96573.22;;;11.56;62.04
49194;BME280;35029;50.804;12.866;2023-03-25T13:20:41;96562.22;;;11.28;61.37
49194;BME280;35029;50.804;12.866;2023-03-25T13:23:12;96568.16;;;11.66;60.76
49194;BME280;35029;50.804;12.866;2023-03-25T13:26:07;96569.50;;;11.80;60.07
49194;BME280;35029;50.804;12.866;2023-03-25T13:28:44;96540.75;;;12.13;59.67
49194;BME280;35029;50.804;12.866;2023-03-25T13:31:16;96580.59;;;12.13;57.65
49194;BME280;35029;50.804;12.866;2023-03-25T13:33:52;96574.13;;;12.09;58.61
49194;BME280;35029;50.804;12.866;2023-03-25T13:36:41;96550.03;;;12.39;58.64
49194;BME280;35029;50.804;12.866;2023-03-25T13:39:20;96557.50;;;12.83;58.79
49194;BME280;35029;50.804;12.866;2023-03-25T13:41:53;96562.50;;;12.79;57.08
49194;BME280;35029;50.804;12.866;2023-03-25T13:44:31;96555.66;;;11.66;57.88
49194;BME280;35029;50.804;12.866;2023-03-25T13:47:17;96585.53;;;11.26;60.15
49194;BME280;35029;50.804;12.866;2023-03-25T13:49:54;96612.44;;;10.69;65.54
49194;BME280;35029;50.804;12.866;2023-03-25T13:52:25;96640.16;;;10.11;68.28
49194;BME280;35029;50.804;12.866;2023-03-25T13:54:57;96649.47;;;9.76;71.42
49194;BME280;35029;50.804;12.866;2023-03-25T14:13:25;96654.03;;;8.53;71.46
49194;BME280;35029;50.804;12.866;2023-03-25T14:16:02;96654.44;;;8.57;71.56
49194;BME280;35029;50.804;12.866;2023-03-25T14:18:40;96676.56;;;8.62;68.57
49194;BME280;35029;50.804;12.866;2023-03-25T14:23:48;96647.88;;;8.79;67.07
49194;BME280;35029;50.804;12.866;2023-03-25T14:26:24;96652.06;;;8.87;66.23
49194;BME280;35029;50.804;12.866;2023-03-25T14:28:54;96668.28;;;9.04;65.68
49194;BME280;35029;50.804;12.866;2023-03-25T14:44:23;96653.63;;;8.63;71.58
49194;BME280;35029;50.804;12.866;2023-03-25T14:46:59;96641.50;;;8.87;70.89
49194;BME280;35029;50.804;12.866;2023-03-25T14:52:41;96666.03;;;9.01;72.48
49194;BME280;35029;50.804;12.866;2023-03-25T14:55:15;96657.19;;;9.21;72.34
49194;BME280;35029;50.804;12.866;2023-03-25T14:57:42;96663.50;;;9.20;69.63
49194;BME280;35029;50.804;12.866;2023-03-25T15:00:27;96671.44;;;9.52;70.58
49194;BME280;35029;50.804;12.866;2023-03-25T15:03:07;96664.91;;;9.22;69.13
49194;BME280;35029;50.804;12.866;2023-03-25T15:05:37;96659.53;;;9.36;68.31
49194;BME280;35029;50.804;12.866;2023-03-25T15:08:24;96657.16;;;9.53;67.44
49194;BME280;35029;50.804;12.866;2023-03-25T15:11:04;96655.28;;;9.60;65.45
49194;BME280;35029;50.804;12.866;2023-03-25T15:13:34;96603.06;;;9.23;66.28
49194;BME280;35029;50.804;12.866;2023-03-25T15:16:04;96632.72;;;9.57;66.93
49194;BME280;35029;50.804;12.866;2023-03-25T15:21:22;96640.81;;;9.37;67.13
49194;BME280;35029;50.804;12.866;2023-03-25T15:23:58;96640.03;;;9.30;67.70
49194;BME280;35029;50.804;12.866;2023-03-25T15:26:32;96644.84;;;9.40;66.71
49194;BME280;35029;50.804;12.866;2023-03-25T15:31:44;96642.91;;;10.23;62.07
49194;BME280;35029;50.804;12.866;2023-03-25T15:48:31;96638.47;;;10.91;62.45
49194;BME280;35029;50.804;12.866;2023-03-25T15:56:41;96649.25;;;11.08;61.79
49194;BME280;35029;50.804;12.866;2023-03-25T16:01:47;96626.84;;;9.99;65.38
49194;BME280;35029;50.804;12.866;2023-03-25T16:04:20;96652.75;;;10.15;65.03
49194;BME280;35029;50.804;12.866;2023-03-25T16:06:54;96623.97;;;10.01;66.21
49194;BME280;35029;50.804;12.866;2023-03-25T16:09:23;96629.38;;;10.68;64.68
49194;BME280;35029;50.804;12.866;2023-03-25T16:11:51;96615.31;;;10.98;62.53
49194;BME280;35029;50.804;12.866;2023-03-25T16:14:20;96624.25;;;11.27;62.88
49194;BME280;35029;50.804;12.866;2023-03-25T16:16:52;96624.38;;;11.21;61.83